Time;durP1;ratioP1;P1;durP2;ratioP2;P2;SDS_P1;SDS_P2;PMS_P1;PMS_P2;Temp;Humidity;BMP_temperature;BMP_pressure;BME280_temperature;BME280_humidity;BME280_pressure;Samples;Min_cycle;Max_cycle;Signal;HPM_P1;HPM_P2
2023/01/08 00:01:21;;;;;;;;;;;8.30;99.90;;;;;;5050038;28;20024;-66
2023/01/08 00:03:49;;;;;;;;;;;8.30;99.90;;;;;;5050918;28;20020;-66
2023/01/08 00:06:20;;;;;;;;;;;8.30;99.90;;;;;;5050180;28;20039;-66
2023/01/08 00:08:47;;;;;;;;;;;8.40;99.90;;;;;;5050674;28;19925;-66
2023/01/08 00:11:17;;;;;;;;;;;8.50;99.90;;;;;;5046366;28;19930;-66
2023/01/08 00:13:44;;;;;;;;;;;8.40;99.90;;;;;;5047663;28;19990;-65
2023/01/08 00:16:13;;;;;;;;;;;8.40;99.90;;;;;;5044890;28;19925;-65
2023/01/08 00:18:41;;;;;;;;;;;8.30;99.90;;;;;;5033774;28;19932;-66
2023/01/08 00:21:09;;;;;;;;;;;8.30;99.90;;;;;;5051064;28;20024;-65
2023/01/08 00:23:37;;;;;;;;;;;8.30;99.90;;;;;;5048698;28;20007;-65
2023/01/08 00:26:05;;;;;;;;;;;8.20;99.90;;;;;;5065809;28;19925;-65
2023/01/08 00:28:34;;;;;;;;;;;8.10;99.90;;;;;;5052364;28;19931;-65
2023/01/08 00:31:02;;;;;;;;;;;8.20;99.90;;;;;;5050723;28;19925;-65
2023/01/08 00:33:31;;;;;;;;;;;8.20;99.90;;;;;;5051538;28;19986;-65
2023/01/08 00:35:59;;;;;;;;;;;8.20;99.90;;;;;;5051464;28;20309;-66
2023/01/08 00:38:26;;;;;;;;;;;8.30;99.90;;;;;;5051310;28;20447;-65
2023/01/08 00:40:54;;;;;;;;;;;8.30;99.90;;;;;;5051168;28;19925;-65
2023/01/08 00:43:22;;;;;;;;;;;8.30;99.90;;;;;;5051214;28;20425;-65
2023/01/08 00:45:52;;;;;;;;;;;8.20;99.90;;;;;;5047457;28;20028;-65
2023/01/08 00:48:21;;;;;;;;;;;8.20;99.90;;;;;;5055078;28;19924;-65
2023/01/08 00:50:48;;;;;;;;;;;8.30;99.90;;;;;;5055012;28;19925;-65
2023/01/08 00:53:17;;;;;;;;;;;8.30;99.90;;;;;;5055637;28;19983;-65
2023/01/08 00:55:44;;;;;;;;;;;8.30;99.90;;;;;;5045916;28;20402;-65
2023/01/08 00:58:12;;;;;;;;;;;8.40;99.90;;;;;;5042495;28;19960;-65
2023/01/08 01:00:40;;;;;;;;;;;8.40;99.90;;;;;;5048753;28;19932;-65
2023/01/08 01:03:09;;;;;;;;;;;8.50;99.90;;;;;;5046492;28;19994;-65
2023/01/08 01:05:37;;;;;;;;;;;8.50;99.90;;;;;;5051043;28;20032;-65
2023/01/08 01:08:05;;;;;;;;;;;8.60;99.90;;;;;;5049074;28;19929;-66
2023/01/08 01:10:32;;;;;;;;;;;8.60;99.90;;;;;;5047299;28;19947;-66
2023/01/08 01:13:00;;;;;;;;;;;8.60;99.90;;;;;;5053854;28;19931;-66
2023/01/08 01:15:28;;;;;;;;;;;8.70;99.90;;;;;;5054750;28;19960;-66
2023/01/08 01:17:55;;;;;;;;;;;8.70;99.90;;;;;;5053817;28;19937;-66
2023/01/08 01:20:24;;;;;;;;;;;8.80;99.90;;;;;;5043789;28;20431;-65
2023/01/08 01:22:52;;;;;;;;;;;8.90;99.90;;;;;;5048949;28;19967;-65
2023/01/08 01:25:20;;;;;;;;;;;8.90;99.90;;;;;;5047676;28;20294;-65
2023/01/08 01:27:47;;;;;;;;;;;8.90;99.90;;;;;;5038335;28;19925;-66
2023/01/08 01:30:15;;;;;;;;;;;9.00;99.90;;;;;;5050752;28;20282;-65
2023/01/08 01:32:43;;;;;;;;;;;9.00;99.90;;;;;;5050353;28;19991;-66
2023/01/08 01:35:11;;;;;;;;;;;9.10;99.90;;;;;;5046414;28;19979;-66
2023/01/08 01:37:40;;;;;;;;;;;9.10;99.90;;;;;;5040503;28;20325;-67
2023/01/08 01:40:08;;;;;;;;;;;9.10;99.90;;;;;;5045659;28;20503;-66
2023/01/08 01:42:42;;;;;;;;;;;9.20;99.90;;;;;;5046376;28;20369;-65
2023/01/08 01:45:15;;;;;;;;;;;9.20;99.90;;;;;;5048486;28;19924;-65
2023/01/08 01:47:44;;;;;;;;;;;9.20;99.90;;;;;;5051326;28;19925;-65
2023/01/08 01:50:13;;;;;;;;;;;9.20;99.90;;;;;;5054020;28;20007;-66
2023/01/08 01:52:44;;;;;;;;;;;9.20;99.90;;;;;;5051313;28;19924;-65
2023/01/08 01:55:12;;;;;;;;;;;9.20;99.90;;;;;;5049810;28;20016;-65
2023/01/08 01:57:43;;;;;;;;;;;9.20;99.90;;;;;;5056339;28;19928;-66
2023/01/08 02:00:11;;;;;;;;;;;9.20;99.90;;;;;;5049404;28;19956;-66
2023/01/08 02:02:39;;;;;;;;;;;9.20;99.90;;;;;;5046339;28;20374;-65
2023/01/08 02:05:07;;;;;;;;;;;9.10;99.90;;;;;;5051135;28;20428;-65
2023/01/08 02:07:40;;;;;;;;;;;9.10;99.90;;;;;;5044598;28;20444;-66
2023/01/08 02:10:11;;;;;;;;;;;9.00;99.90;;;;;;5051675;28;20020;-65
2023/01/08 02:12:41;;;;;;;;;;;9.00;99.90;;;;;;5047848;28;19971;-65
2023/01/08 02:15:13;;;;;;;;;;;8.90;99.90;;;;;;5053945;28;19929;-65
2023/01/08 02:17:45;;;;;;;;;;;8.80;99.90;;;;;;5048511;28;20016;-65
2023/01/08 02:20:14;;;;;;;;;;;8.80;99.90;;;;;;5053411;28;20359;-65
2023/01/08 02:22:48;;;;;;;;;;;8.80;99.90;;;;;;5053644;28;19957;-65
2023/01/08 02:25:22;;;;;;;;;;;8.80;99.90;;;;;;5053747;28;20007;-66
2023/01/08 02:27:53;;;;;;;;;;;8.80;99.90;;;;;;5053359;28;19924;-66
2023/01/08 02:30:21;;;;;;;;;;;8.80;99.90;;;;;;5050313;28;19932;-65
2023/01/08 02:32:49;;;;;;;;;;;8.80;99.90;;;;;;5044166;28;19935;-66
2023/01/08 02:35:19;;;;;;;;;;;8.70;99.90;;;;;;5061888;28;19935;-65
2023/01/08 02:37:47;;;;;;;;;;;8.70;99.90;;;;;;5057193;28;19958;-66
2023/01/08 02:40:19;;;;;;;;;;;8.60;99.90;;;;;;5050314;28;20012;-66
2023/01/08 02:42:50;;;;;;;;;;;8.60;99.90;;;;;;5052126;28;19939;-68
2023/01/08 02:45:25;;;;;;;;;;;8.60;99.90;;;;;;5049610;28;20046;-66
2023/01/08 02:47:54;;;;;;;;;;;8.50;99.90;;;;;;5043343;28;20403;-66
2023/01/08 02:50:25;;;;;;;;;;;8.50;99.90;;;;;;5045793;28;19932;-66
2023/01/08 02:52:55;;;;;;;;;;;8.50;99.90;;;;;;5044525;28;20370;-66
2023/01/08 02:55:24;;;;;;;;;;;8.40;99.90;;;;;;5046376;28;19936;-66
2023/01/08 02:57:52;;;;;;;;;;;8.40;99.90;;;;;;5041707;28;20014;-67
2023/01/08 03:00:20;;;;;;;;;;;8.30;99.90;;;;;;5044561;28;19924;-66
2023/01/08 03:02:51;;;;;;;;;;;8.30;99.90;;;;;;5040551;28;19935;-67
2023/01/08 03:05:22;;;;;;;;;;;8.40;99.90;;;;;;5047235;28;20012;-68
2023/01/08 03:07:50;;;;;;;;;;;8.30;99.90;;;;;;5040657;28;19926;-68
2023/01/08 03:10:20;;;;;;;;;;;8.30;99.90;;;;;;5046713;28;19935;-67
2023/01/08 03:12:50;;;;;;;;;;;8.30;99.90;;;;;;5048661;28;19937;-68
2023/01/08 03:15:20;;;;;;;;;;;8.30;99.90;;;;;;5047420;28;20016;-68
2023/01/08 03:17:50;;;;;;;;;;;8.30;99.90;;;;;;5039923;28;20027;-68
2023/01/08 03:20:20;;;;;;;;;;;8.20;99.90;;;;;;5045212;28;20453;-67
2023/01/08 03:22:49;;;;;;;;;;;8.30;99.90;;;;;;5042228;28;19956;-67
2023/01/08 03:25:18;;;;;;;;;;;8.30;99.90;;;;;;5047493;28;19935;-67
2023/01/08 03:27:48;;;;;;;;;;;8.40;99.90;;;;;;5042777;28;20028;-68
2023/01/08 03:30:17;;;;;;;;;;;8.40;99.90;;;;;;5041828;28;19925;-67
2023/01/08 03:32:46;;;;;;;;;;;8.40;99.90;;;;;;5043584;28;19925;-66
2023/01/08 03:35:17;;;;;;;;;;;8.30;99.90;;;;;;5047977;28;19929;-67
2023/01/08 03:37:46;;;;;;;;;;;8.30;99.90;;;;;;5042857;28;20032;-65
2023/01/08 03:40:17;;;;;;;;;;;8.20;99.90;;;;;;5045511;28;19979;-67
2023/01/08 03:42:45;;;;;;;;;;;8.20;99.90;;;;;;5043440;28;19931;-65
2023/01/08 03:45:12;;;;;;;;;;;8.20;99.90;;;;;;5046792;28;20420;-65
2023/01/08 03:47:41;;;;;;;;;;;8.20;99.90;;;;;;5049275;28;20020;-65
2023/01/08 03:50:11;;;;;;;;;;;8.20;99.90;;;;;;5047564;28;19928;-65
2023/01/08 03:52:40;;;;;;;;;;;8.30;99.90;;;;;;5043095;28;19965;-66
2023/01/08 03:55:08;;;;;;;;;;;8.30;99.90;;;;;;5046934;28;19931;-66
2023/01/08 03:57:36;;;;;;;;;;;8.20;99.90;;;;;;5041637;28;21351;-65
2023/01/08 04:00:04;;;;;;;;;;;8.10;99.90;;;;;;5045856;28;20320;-65
2023/01/08 04:02:32;;;;;;;;;;;8.10;99.90;;;;;;5048904;28;19959;-66
2023/01/08 04:05:00;;;;;;;;;;;8.10;99.90;;;;;;5051620;28;19975;-65
2023/01/08 04:07:27;;;;;;;;;;;8.10;99.90;;;;;;5051623;28;20019;-65
2023/01/08 04:09:56;;;;;;;;;;;8.20;99.90;;;;;;5050686;28;19924;-65
2023/01/08 04:12:24;;;;;;;;;;;8.20;99.90;;;;;;5051454;28;19931;-66
2023/01/08 04:14:52;;;;;;;;;;;8.30;99.90;;;;;;5051865;28;19931;-65
2023/01/08 04:17:20;;;;;;;;;;;8.40;99.90;;;;;;5044383;28;20368;-66
2023/01/08 04:19:47;;;;;;;;;;;8.40;99.90;;;;;;5039117;28;20390;-66
2023/01/08 04:22:15;;;;;;;;;;;8.30;99.90;;;;;;5042077;28;20012;-66
2023/01/08 04:24:43;;;;;;;;;;;8.30;99.90;;;;;;5048361;28;19971;-66
2023/01/08 04:27:12;;;;;;;;;;;8.40;99.90;;;;;;5038702;28;20016;-66
2023/01/08 04:29:40;;;;;;;;;;;8.40;99.90;;;;;;5038098;28;19929;-66
2023/01/08 04:32:07;;;;;;;;;;;8.40;99.90;;;;;;5036316;28;20035;-65
2023/01/08 04:34:35;;;;;;;;;;;8.40;99.90;;;;;;5045773;28;20387;-67
2023/01/08 04:37:03;;;;;;;;;;;8.40;99.90;;;;;;5042872;28;19931;-65
2023/01/08 04:39:30;;;;;;;;;;;8.40;99.90;;;;;;5038507;28;19925;-65
2023/01/08 04:41:58;;;;;;;;;;;8.30;99.90;;;;;;5046664;28;19947;-65
2023/01/08 04:44:27;;;;;;;;;;;8.20;99.90;;;;;;5050210;28;20389;-67
2023/01/08 04:46:55;;;;;;;;;;;8.20;99.90;;;;;;5049109;28;20390;-67
2023/01/08 04:49:22;;;;;;;;;;;8.30;99.90;;;;;;5057365;28;20385;-67
2023/01/08 04:51:50;;;;;;;;;;;8.40;99.90;;;;;;5049815;28;19983;-67
2023/01/08 04:54:18;;;;;;;;;;;8.40;99.90;;;;;;5049177;28;20326;-67
2023/01/08 04:56:45;;;;;;;;;;;8.20;99.90;;;;;;5050043;28;19925;-67
2023/01/08 04:59:13;;;;;;;;;;;8.20;99.90;;;;;;5048252;28;19924;-68
2023/01/08 05:01:42;;;;;;;;;;;8.20;99.90;;;;;;5047779;28;20394;-66
2023/01/08 05:04:10;;;;;;;;;;;8.10;99.90;;;;;;5050905;28;19929;-67
2023/01/08 05:06:38;;;;;;;;;;;8.20;99.90;;;;;;5031383;28;20032;-66
2023/01/08 05:09:06;;;;;;;;;;;8.10;99.90;;;;;;5049237;28;20032;-67
2023/01/08 05:11:36;;;;;;;;;;;8.10;99.90;;;;;;5050308;28;19937;-67
2023/01/08 05:14:04;;;;;;;;;;;8.00;99.90;;;;;;5051091;28;19964;-67
2023/01/08 05:16:31;;;;;;;;;;;8.10;99.90;;;;;;5047638;28;20321;-66
2023/01/08 05:19:00;;;;;;;;;;;8.00;99.90;;;;;;5047199;28;20302;-67
2023/01/08 05:21:28;;;;;;;;;;;8.00;99.90;;;;;;5049364;28;20325;-68
2023/01/08 05:23:56;;;;;;;;;;;8.00;99.90;;;;;;5047721;28;19931;-67
2023/01/08 05:26:23;;;;;;;;;;;8.00;99.90;;;;;;5046341;28;19931;-67
2023/01/08 05:28:51;;;;;;;;;;;8.00;99.90;;;;;;5042661;28;20354;-66
2023/01/08 05:31:19;;;;;;;;;;;8.00;99.90;;;;;;5049959;28;19924;-67
2023/01/08 05:33:47;;;;;;;;;;;8.00;99.90;;;;;;5050891;28;20476;-68
2023/01/08 05:36:16;;;;;;;;;;;8.00;99.90;;;;;;5051836;28;19929;-66
2023/01/08 05:38:44;;;;;;;;;;;8.00;99.90;;;;;;5052717;28;19932;-67
2023/01/08 05:41:11;;;;;;;;;;;8.00;99.90;;;;;;5052083;28;19956;-66
2023/01/08 05:43:39;;;;;;;;;;;8.00;99.90;;;;;;5049004;28;19943;-67
2023/01/08 05:46:07;;;;;;;;;;;8.00;99.90;;;;;;5053631;28;19924;-66
2023/01/08 05:48:36;;;;;;;;;;;8.10;99.90;;;;;;5095744;22;19932;-62
2023/01/08 05:51:04;;;;;;;;;;;8.10;99.90;;;;;;5097458;28;20361;-62
2023/01/08 05:53:33;;;;;;;;;;;8.10;99.90;;;;;;5098901;28;19932;-62
2023/01/08 05:56:02;;;;;;;;;;;8.10;99.90;;;;;;5107578;28;19930;-62
2023/01/08 05:58:29;;;;;;;;;;;8.00;99.90;;;;;;5103157;28;19924;-62
2023/01/08 06:01:01;;;;;;;;;;;8.00;99.90;;;;;;5091595;28;19924;-62
2023/01/08 06:03:28;;;;;;;;;;;8.00;99.90;;;;;;5095802;28;19924;-63
2023/01/08 06:05:58;;;;;;;;;;;8.00;99.90;;;;;;5104746;28;19923;-62
2023/01/08 06:08:25;;;;;;;;;;;8.00;99.90;;;;;;5096571;28;21646;-62
2023/01/08 06:10:54;;;;;;;;;;;8.00;99.90;;;;;;5097856;28;19924;-62
2023/01/08 06:13:22;;;;;;;;;;;8.00;99.90;;;;;;5094213;28;19930;-62
2023/01/08 06:15:50;;;;;;;;;;;8.00;99.90;;;;;;5090245;28;19924;-62
2023/01/08 06:18:17;;;;;;;;;;;8.10;99.90;;;;;;5093548;28;20027;-62
2023/01/08 06:20:45;;;;;;;;;;;8.10;99.90;;;;;;5112780;28;20015;-62
2023/01/08 06:23:13;;;;;;;;;;;8.00;99.90;;;;;;5097472;28;19948;-62
2023/01/08 06:25:40;;;;;;;;;;;8.00;99.90;;;;;;5094109;28;20015;-63
2023/01/08 06:28:10;;;;;;;;;;;8.10;99.90;;;;;;5094073;28;19954;-62
2023/01/08 06:30:37;;;;;;;;;;;8.10;99.90;;;;;;5099536;28;19931;-62
2023/01/08 06:33:05;;;;;;;;;;;8.10;99.90;;;;;;5094379;28;19928;-62
2023/01/08 06:35:33;;;;;;;;;;;8.10;99.90;;;;;;5108684;28;20018;-62
2023/01/08 06:38:00;;;;;;;;;;;8.10;99.90;;;;;;5097401;28;19928;-62
2023/01/08 06:40:28;;;;;;;;;;;8.10;99.90;;;;;;5094314;28;20411;-62
2023/01/08 06:42:56;;;;;;;;;;;8.00;99.90;;;;;;5097428;28;20012;-62
2023/01/08 06:45:25;;;;;;;;;;;8.00;99.90;;;;;;5097670;28;19924;-62
2023/01/08 06:47:52;;;;;;;;;;;8.10;99.90;;;;;;5094784;28;19923;-62
2023/01/08 06:50:20;;;;;;;;;;;8.00;99.90;;;;;;5095497;28;19924;-63
2023/01/08 06:52:52;;;;;;;;;;;8.00;99.90;;;;;;5101355;28;20343;-63
2023/01/08 06:55:20;;;;;;;;;;;8.10;99.90;;;;;;5086542;28;19938;-62
2023/01/08 06:57:48;;;;;;;;;;;8.10;99.90;;;;;;5093089;28;20014;-62
2023/01/08 07:00:16;;;;;;;;;;;8.10;99.90;;;;;;5095918;28;20023;-62
2023/01/08 07:02:45;;;;;;;;;;;8.10;99.90;;;;;;5093379;28;20022;-62
2023/01/08 07:05:13;;;;;;;;;;;8.10;99.90;;;;;;5093327;28;19925;-63
2023/01/08 07:07:40;;;;;;;;;;;8.10;99.90;;;;;;5093446;28;19930;-62
2023/01/08 07:10:08;;;;;;;;;;;8.10;99.90;;;;;;5082154;28;20019;-62
2023/01/08 07:12:36;;;;;;;;;;;8.10;99.90;;;;;;5087981;28;19928;-62
2023/01/08 07:15:04;;;;;;;;;;;8.10;99.90;;;;;;5083614;28;20007;-62
2023/01/08 07:17:32;;;;;;;;;;;8.10;99.90;;;;;;5092908;28;19928;-62
2023/01/08 07:20:01;;;;;;;;;;;8.10;99.90;;;;;;5091734;28;20674;-62
2023/01/08 07:22:29;;;;;;;;;;;8.10;99.90;;;;;;5091628;28;19930;-62
2023/01/08 07:24:56;;;;;;;;;;;8.10;99.90;;;;;;5098724;28;19924;-63
2023/01/08 07:27:24;;;;;;;;;;;8.00;99.90;;;;;;5090437;28;19924;-62
2023/01/08 07:29:51;;;;;;;;;;;8.00;99.90;;;;;;5100755;28;19924;-62
2023/01/08 07:32:19;;;;;;;;;;;8.00;99.90;;;;;;5094098;28;19924;-62
2023/01/08 07:34:47;;;;;;;;;;;8.00;99.90;;;;;;5093744;28;19963;-62
2023/01/08 07:37:16;;;;;;;;;;;8.00;99.90;;;;;;5093558;28;19924;-62
2023/01/08 07:39:44;;;;;;;;;;;8.00;99.90;;;;;;5092411;28;19924;-62
2023/01/08 07:42:11;;;;;;;;;;;8.10;99.90;;;;;;5092705;28;19924;-62
2023/01/08 07:44:39;;;;;;;;;;;8.00;99.90;;;;;;5080366;28;19929;-62
2023/01/08 07:47:07;;;;;;;;;;;8.00;99.90;;;;;;5072846;28;19963;-62
2023/01/08 07:49:34;;;;;;;;;;;8.10;99.90;;;;;;5073170;28;20321;-61
2023/01/08 07:52:02;;;;;;;;;;;8.00;99.90;;;;;;5083180;28;20034;-66
2023/01/08 07:54:31;;;;;;;;;;;8.00;99.90;;;;;;5087906;28;20044;-64
2023/01/08 07:56:59;;;;;;;;;;;8.00;99.90;;;;;;5090558;28;19963;-64
2023/01/08 07:59:26;;;;;;;;;;;8.00;99.90;;;;;;5097921;28;20327;-64
2023/01/08 08:01:54;;;;;;;;;;;8.00;99.90;;;;;;5086346;28;19924;-64
2023/01/08 08:04:23;;;;;;;;;;;7.90;99.90;;;;;;5097061;28;19924;-64
2023/01/08 08:06:50;;;;;;;;;;;8.00;99.90;;;;;;5090593;28;20392;-64
2023/01/08 08:09:18;;;;;;;;;;;8.00;99.90;;;;;;5094980;28;20010;-64
2023/01/08 08:11:47;;;;;;;;;;;8.00;99.90;;;;;;5090836;28;19924;-64
2023/01/08 08:14:15;;;;;;;;;;;8.00;99.90;;;;;;5087698;28;20296;-64
2023/01/08 08:16:42;;;;;;;;;;;8.00;99.90;;;;;;5094616;28;20396;-64
2023/01/08 08:19:11;;;;;;;;;;;8.00;99.90;;;;;;5088601;28;19930;-64
2023/01/08 08:21:39;;;;;;;;;;;8.00;99.90;;;;;;5089842;28;19928;-64
2023/01/08 08:24:06;;;;;;;;;;;8.00;99.90;;;;;;5091167;28;19928;-65
2023/01/08 08:26:34;;;;;;;;;;;8.00;99.90;;;;;;5088554;28;20023;-63
2023/01/08 08:29:03;;;;;;;;;;;8.00;99.90;;;;;;5087982;28;20018;-64
2023/01/08 08:31:31;;;;;;;;;;;8.00;99.90;;;;;;5086629;28;19930;-64
2023/01/08 08:33:59;;;;;;;;;;;8.10;99.90;;;;;;5089703;28;19928;-64
2023/01/08 08:36:30;;;;;;;;;;;8.00;99.90;;;;;;5089928;28;19924;-64
2023/01/08 08:38:58;;;;;;;;;;;8.00;99.90;;;;;;5089740;28;19924;-63
2023/01/08 08:41:25;;;;;;;;;;;8.00;99.90;;;;;;5088255;28;19932;-64
2023/01/08 08:43:53;;;;;;;;;;;8.00;99.90;;;;;;5089725;28;19930;-65
2023/01/08 08:46:24;;;;;;;;;;;8.00;99.90;;;;;;5088000;28;19935;-64
2023/01/08 08:48:51;;;;;;;;;;;8.00;99.90;;;;;;5094490;28;19931;-64
2023/01/08 08:51:19;;;;;;;;;;;8.00;99.90;;;;;;5090665;28;20026;-64
2023/01/08 08:53:47;;;;;;;;;;;8.00;99.90;;;;;;5092064;28;19924;-64
2023/01/08 08:56:14;;;;;;;;;;;8.00;99.90;;;;;;5090968;28;19924;-64
2023/01/08 08:58:44;;;;;;;;;;;8.00;99.90;;;;;;5095506;28;19946;-64
2023/01/08 09:01:11;;;;;;;;;;;8.00;99.90;;;;;;5088011;28;19925;-64
2023/01/08 09:03:40;;;;;;;;;;;8.00;99.90;;;;;;5086261;28;19985;-65
2023/01/08 09:06:12;;;;;;;;;;;8.00;99.90;;;;;;5089177;28;20011;-64
2023/01/08 09:08:40;;;;;;;;;;;8.00;99.90;;;;;;5092848;28;20471;-65
2023/01/08 09:11:08;;;;;;;;;;;8.00;99.90;;;;;;5095127;28;19934;-65
2023/01/08 09:13:36;;;;;;;;;;;8.00;99.90;;;;;;5094639;28;20292;-64
2023/01/08 09:16:04;;;;;;;;;;;8.00;99.90;;;;;;5091819;28;19946;-64
2023/01/08 09:18:32;;;;;;;;;;;8.00;99.90;;;;;;5091960;28;19924;-64
2023/01/08 09:21:05;;;;;;;;;;;8.00;99.90;;;;;;5093658;28;20311;-63
2023/01/08 09:23:33;;;;;;;;;;;8.00;99.90;;;;;;5100601;28;19932;-64
2023/01/08 09:26:01;;;;;;;;;;;8.00;99.90;;;;;;5089083;28;20469;-64
2023/01/08 09:28:29;;;;;;;;;;;8.00;99.90;;;;;;5095793;28;20011;-64
2023/01/08 09:31:00;;;;;;;;;;;8.10;99.90;;;;;;5091440;28;19931;-64
2023/01/08 09:33:28;;;;;;;;;;;8.10;99.90;;;;;;5090840;28;19936;-64
2023/01/08 09:35:55;;;;;;;;;;;8.10;99.90;;;;;;5090108;28;19930;-64
2023/01/08 09:38:25;;;;;;;;;;;8.10;99.90;;;;;;5091273;28;19924;-64
2023/01/08 09:40:57;;;;;;;;;;;8.10;99.90;;;;;;5092292;28;20351;-64
2023/01/08 09:43:27;;;;;;;;;;;8.10;99.90;;;;;;5094522;28;19924;-63
2023/01/08 09:45:56;;;;;;;;;;;8.10;99.90;;;;;;5089526;28;20026;-63
2023/01/08 09:48:25;;;;;;;;;;;8.20;99.90;;;;;;5091567;28;19924;-64
2023/01/08 09:50:53;;;;;;;;;;;8.10;99.90;;;;;;5090466;28;19938;-64
2023/01/08 09:53:21;;;;;;;;;;;8.10;99.90;;;;;;5090633;28;19928;-64
2023/01/08 09:55:54;;;;;;;;;;;8.10;99.90;;;;;;5094950;28;19928;-64
2023/01/08 09:58:37;;;;;;;;;;;8.10;99.90;;;;;;5093482;28;19924;-64
2023/01/08 10:01:05;;;;;;;;;;;8.20;99.90;;;;;;5091623;28;20403;-64
2023/01/08 10:03:38;;;;;;;;;;;8.20;99.90;;;;;;5091487;28;20493;-64
2023/01/08 10:06:08;;;;;;;;;;;8.20;99.90;;;;;;5093300;28;19931;-63
2023/01/08 10:08:36;;;;;;;;;;;8.20;99.90;;;;;;5089728;28;19963;-63
2023/01/08 10:11:05;;;;;;;;;;;8.20;99.90;;;;;;5088741;28;19925;-64
2023/01/08 10:13:34;;;;;;;;;;;8.20;99.90;;;;;;5093368;28;20389;-63
2023/01/08 10:16:04;;;;;;;;;;;8.20;99.90;;;;;;5098019;28;19924;-64
2023/01/08 10:18:32;;;;;;;;;;;8.20;99.90;;;;;;5091003;28;20409;-64
2023/01/08 10:21:00;;;;;;;;;;;8.20;99.90;;;;;;5099623;28;20307;-64
2023/01/08 10:23:28;;;;;;;;;;;8.30;99.90;;;;;;5095360;28;20010;-63
2023/01/08 10:25:57;;;;;;;;;;;8.30;99.90;;;;;;5087602;28;20285;-65
2023/01/08 10:28:26;;;;;;;;;;;8.30;99.90;;;;;;5091436;28;19932;-64
2023/01/08 10:30:58;;;;;;;;;;;8.30;99.90;;;;;;5090721;28;20006;-64
2023/01/08 10:33:28;;;;;;;;;;;8.30;99.90;;;;;;5092351;28;19924;-63
2023/01/08 10:35:58;;;;;;;;;;;8.40;99.90;;;;;;5098435;28;19924;-63
2023/01/08 10:38:28;;;;;;;;;;;8.40;99.90;;;;;;5102595;28;19931;-63
2023/01/08 10:41:00;;;;;;;;;;;8.40;99.90;;;;;;5094006;28;19924;-63
2023/01/08 10:43:31;;;;;;;;;;;8.40;99.90;;;;;;5092804;28;19924;-63
2023/01/08 10:46:00;;;;;;;;;;;8.40;99.90;;;;;;5094688;28;19924;-63
2023/01/08 10:48:32;;;;;;;;;;;8.40;99.90;;;;;;5090021;28;19977;-63
2023/01/08 10:51:12;;;;;;;;;;;8.50;99.90;;;;;;5091919;28;20408;-64
2023/01/08 10:53:40;;;;;;;;;;;8.50;99.90;;;;;;5088138;28;19931;-64
2023/01/08 10:56:17;;;;;;;;;;;8.60;99.90;;;;;;5093537;28;19946;-64
2023/01/08 10:58:45;;;;;;;;;;;8.70;99.90;;;;;;5088074;28;19928;-64
2023/01/08 11:01:16;;;;;;;;;;;8.80;99.90;;;;;;5091078;28;19924;-64
2023/01/08 11:03:48;;;;;;;;;;;8.80;99.90;;;;;;5088608;28;19939;-64
2023/01/08 11:06:20;;;;;;;;;;;9.00;99.90;;;;;;5089622;28;19979;-63
2023/01/08 11:08:50;;;;;;;;;;;9.00;99.90;;;;;;5094674;28;19930;-63
2023/01/08 11:11:18;;;;;;;;;;;8.90;99.90;;;;;;5088725;28;19930;-63
2023/01/08 11:13:57;;;;;;;;;;;8.90;99.90;;;;;;5094435;28;19924;-63
2023/01/08 11:16:33;;;;;;;;;;;8.90;99.90;;;;;;5092417;28;19924;-64
2023/01/08 11:19:00;;;;;;;;;;;8.90;99.90;;;;;;5089252;28;19939;-63
2023/01/08 11:21:30;;;;;;;;;;;9.00;99.90;;;;;;5091203;28;19924;-64
2023/01/08 11:24:10;;;;;;;;;;;9.00;99.90;;;;;;5090657;28;19950;-64
2023/01/08 11:26:40;;;;;;;;;;;9.00;99.90;;;;;;5089622;28;20316;-64
2023/01/08 11:29:12;;;;;;;;;;;9.10;99.90;;;;;;5090402;28;20015;-64
2023/01/08 11:31:43;;;;;;;;;;;9.10;99.90;;;;;;5085918;28;19930;-64
2023/01/08 11:34:15;;;;;;;;;;;9.10;99.90;;;;;;5098103;28;20273;-64
2023/01/08 11:36:46;;;;;;;;;;;9.10;99.90;;;;;;5093828;28;20026;-64
2023/01/08 11:39:14;;;;;;;;;;;9.00;99.90;;;;;;5089324;28;20304;-64
2023/01/08 11:41:48;;;;;;;;;;;9.00;99.90;;;;;;5096641;28;19928;-64
2023/01/08 11:44:23;;;;;;;;;;;9.00;99.90;;;;;;5087003;28;19939;-64
2023/01/08 11:46:54;;;;;;;;;;;8.90;99.90;;;;;;5086186;28;19961;-65
2023/01/08 11:49:30;;;;;;;;;;;9.00;99.90;;;;;;5218809;22;20391;-67
2023/01/08 11:52:04;;;;;;;;;;;9.00;99.90;;;;;;5092282;28;20019;-67
2023/01/08 11:54:39;;;;;;;;;;;9.00;99.90;;;;;;5095486;28;19932;-67
2023/01/08 11:57:13;;;;;;;;;;;9.10;99.90;;;;;;5095655;28;20010;-68
2023/01/08 11:59:51;;;;;;;;;;;9.10;99.90;;;;;;5089004;28;19931;-67
2023/01/08 12:02:22;;;;;;;;;;;9.20;99.90;;;;;;5089812;28;20269;-67
2023/01/08 12:05:08;;;;;;;;;;;9.20;99.90;;;;;;5092433;28;19935;-68
2023/01/08 12:07:42;;;;;;;;;;;9.20;99.90;;;;;;5092728;28;19924;-68
2023/01/08 12:10:15;;;;;;;;;;;9.20;99.90;;;;;;5094026;28;22254;-68
2023/01/08 12:12:49;;;;;;;;;;;9.20;99.90;;;;;;5092684;28;19969;-68
2023/01/08 12:15:20;;;;;;;;;;;9.30;99.90;;;;;;5096475;28;20374;-69
2023/01/08 12:17:59;;;;;;;;;;;9.30;99.90;;;;;;5094607;28;20010;-69
2023/01/08 12:20:32;;;;;;;;;;;9.30;99.90;;;;;;5094055;28;20467;-70
2023/01/08 12:23:03;;;;;;;;;;;9.20;99.90;;;;;;5088324;28;19924;-68
2023/01/08 12:25:52;;;;;;;;;;;9.20;99.90;;;;;;5095339;28;19924;-68
2023/01/08 12:28:33;;;;;;;;;;;9.20;99.90;;;;;;5089650;28;19928;-68
2023/01/08 12:31:12;;;;;;;;;;;9.20;99.90;;;;;;5091628;28;19924;-68
2023/01/08 12:33:43;;;;;;;;;;;9.20;99.90;;;;;;5091750;28;19946;-67
2023/01/08 12:36:14;;;;;;;;;;;9.20;99.90;;;;;;5095290;28;19924;-67
2023/01/08 12:38:43;;;;;;;;;;;9.20;99.90;;;;;;5088082;28;19924;-68
2023/01/08 12:41:12;;;;;;;;;;;9.20;99.90;;;;;;5085809;28;19935;-66
2023/01/08 12:43:44;;;;;;;;;;;9.30;99.90;;;;;;5090625;28;19924;-66
2023/01/08 12:46:15;;;;;;;;;;;9.30;99.90;;;;;;5091942;28;19924;-66
2023/01/08 12:48:44;;;;;;;;;;;9.40;99.90;;;;;;5083985;28;19956;-66
2023/01/08 12:51:18;;;;;;;;;;;9.40;99.90;;;;;;5090266;28;19924;-66
2023/01/08 12:53:52;;;;;;;;;;;9.40;99.90;;;;;;5089930;28;19924;-66
2023/01/08 12:56:24;;;;;;;;;;;9.40;99.90;;;;;;5092259;28;19927;-66
2023/01/08 12:58:59;;;;;;;;;;;9.40;99.90;;;;;;5091082;28;19924;-66
2023/01/08 13:01:32;;;;;;;;;;;9.50;99.90;;;;;;5090314;28;19942;-68
2023/01/08 13:04:03;;;;;;;;;;;9.40;99.90;;;;;;5090525;28;19950;-69
2023/01/08 13:06:30;;;;;;;;;;;9.40;99.90;;;;;;5093782;28;19928;-69
2023/01/08 13:08:59;;;;;;;;;;;9.40;99.90;;;;;;5090419;28;19930;-68
2023/01/08 13:11:29;;;;;;;;;;;9.50;99.90;;;;;;5089739;28;20025;-68
2023/01/08 13:14:04;;;;;;;;;;;9.40;99.90;;;;;;5093010;28;19924;-69
2023/01/08 13:16:37;;;;;;;;;;;9.40;99.90;;;;;;5091215;28;20030;-68
2023/01/08 13:19:05;;;;;;;;;;;9.40;99.90;;;;;;5092354;28;19931;-66
2023/01/08 13:21:35;;;;;;;;;;;9.40;99.90;;;;;;5088954;28;19938;-67
2023/01/08 13:24:05;;;;;;;;;;;9.40;99.90;;;;;;5093397;28;20007;-67
2023/01/08 13:26:33;;;;;;;;;;;9.40;99.90;;;;;;5090004;28;20019;-67
2023/01/08 13:29:08;;;;;;;;;;;9.40;99.90;;;;;;5092417;28;19929;-67
2023/01/08 13:31:41;;;;;;;;;;;9.50;99.90;;;;;;5089558;28;19932;-67
2023/01/08 13:34:18;;;;;;;;;;;9.50;99.90;;;;;;5090162;28;19991;-67
2023/01/08 13:36:54;;;;;;;;;;;9.50;99.90;;;;;;5087420;28;20464;-67
2023/01/08 13:39:23;;;;;;;;;;;9.40;99.90;;;;;;5089014;28;19924;-68
2023/01/08 13:41:57;;;;;;;;;;;9.50;99.90;;;;;;5093143;28;20316;-67
2023/01/08 13:44:27;;;;;;;;;;;9.40;99.90;;;;;;5090704;28;19924;-68
2023/01/08 13:46:56;;;;;;;;;;;9.50;99.90;;;;;;5092686;28;19927;-68
2023/01/08 13:49:27;;;;;;;;;;;9.40;99.90;;;;;;5092343;28;19982;-68
2023/01/08 13:51:55;;;;;;;;;;;9.40;99.90;;;;;;5090428;28;20026;-68
2023/01/08 13:54:28;;;;;;;;;;;9.40;99.90;;;;;;5094743;28;19930;-68
2023/01/08 13:57:02;;;;;;;;;;;9.40;99.90;;;;;;5094371;28;20070;-68
2023/01/08 13:59:34;;;;;;;;;;;9.40;99.90;;;;;;5092844;28;19977;-68
2023/01/08 14:02:03;;;;;;;;;;;9.40;99.90;;;;;;5094941;28;19954;-68
2023/01/08 14:04:31;;;;;;;;;;;9.40;99.90;;;;;;5089054;28;19924;-68
2023/01/08 14:07:10;;;;;;;;;;;9.40;99.90;;;;;;5092244;28;19928;-68
2023/01/08 14:09:37;;;;;;;;;;;9.40;99.90;;;;;;5094194;28;19932;-69
2023/01/08 14:12:05;;;;;;;;;;;9.40;99.90;;;;;;5093309;28;19931;-68
2023/01/08 14:14:33;;;;;;;;;;;9.40;99.90;;;;;;5095826;28;20443;-68
2023/01/08 14:17:02;;;;;;;;;;;9.50;99.90;;;;;;5093314;28;20308;-68
2023/01/08 14:19:31;;;;;;;;;;;9.50;99.90;;;;;;5090301;28;19929;-68
2023/01/08 14:22:00;;;;;;;;;;;9.50;99.90;;;;;;5084320;28;20011;-68
2023/01/08 14:24:28;;;;;;;;;;;9.50;99.90;;;;;;5093402;28;19959;-68
2023/01/08 14:27:02;;;;;;;;;;;9.50;99.90;;;;;;5092146;28;20369;-68
2023/01/08 14:29:33;;;;;;;;;;;9.50;99.90;;;;;;5093117;28;20339;-67
2023/01/08 14:32:01;;;;;;;;;;;9.40;99.90;;;;;;5095719;28;20027;-67
2023/01/08 14:34:31;;;;;;;;;;;9.50;99.90;;;;;;5091777;28;19924;-68
2023/01/08 14:36:58;;;;;;;;;;;9.40;99.90;;;;;;5097023;28;19931;-68
2023/01/08 14:39:35;;;;;;;;;;;9.40;99.90;;;;;;5093303;28;19928;-68
2023/01/08 14:44:53;;;;;;;;;;;9.50;99.90;;;;;;5093795;28;20441;-68
2023/01/08 14:47:22;;;;;;;;;;;9.40;99.90;;;;;;5092166;28;19982;-68